ESSA/ARN METAR and TAF weather

Enter ICAO airport designator
Station Type Date Time Source
ESSA METAR 2020/04/06 07:50 UTC NOAA

ESSA 060750Z 20009KT CAVOK 08/01 Q1027 R01L/09//95 R01R/09//95 R08/09//95 NOSIG


Station Type Date Time Source
ESSA Decoded METAR 2020/04/06 07:50 UTC NOAA

Stockholm / Arlanda, Sweden (ESSA) 59-39N 017-57E 61M
Apr 06, 2020 - 03:50 AM EDT / 2020.04.06 0750 UTC
Wind: from the SSW (200 degrees) at 10 MPH (9 KT):0
Visibility: greater than 7 mile(s):0
Temperature: 46 F (8 C)
Dew Point: 33 F (1 C)
Relative Humidity: 61%
Pressure (altimeter): 30.33 in. Hg (1027 hPa)
ob: ESSA 060750Z 20009KT CAVOK 08/01 Q1027 R01L/09//95 R01R/09//95 R08/09//95 NOSIG
cycle: 8

Station Type Date Time Source
ESSA TAF 2020/04/06 06:18 UTC NOAA

TAF TAF ESSA 060530Z 0606/0706 18004KT CAVOK
BECMG 0609/0611 18014KT
BECMG 0620/0622 18004KT

Example: see airport list